Time;durP1;ratioP1;P1;durP2;ratioP2;P2;SDS_P1;SDS_P2;PMS_P1;PMS_P2;Temp;Humidity;BMP_temperature;BMP_pressure;BME280_temperature;BME280_humidity;BME280_pressure;Samples;Min_cycle;Max_cycle;Signal;HPM_P1;HPM_P2
2022/12/01 00:01:35;;;;;;;0.43;0.33;;;;;;;8.32;100.00;95335.34;5092260;28;20421;-54
2022/12/01 00:04:03;;;;;;;0.30;0.20;;;;;;;8.31;100.00;95331.09;5092321;28;20897;-54
2022/12/01 00:06:31;;;;;;;0.40;0.30;;;;;;;8.20;100.00;95319.63;5091833;28;20945;-54
2022/12/01 00:11:49;;;;;;;0.30;0.20;;;;;;;8.43;100.00;95321.13;5091892;28;20429;-54
2022/12/01 00:14:17;;;;;;;0.30;0.20;;;;;;;8.43;100.00;95321.13;5092271;28;20435;-54
2022/12/01 00:16:45;;;;;;;0.60;0.60;;;;;;;8.33;100.00;95297.31;5092254;28;20451;-54
2022/12/01 00:19:14;;;;;;;0.40;0.30;;;;;;;8.46;100.00;95312.69;5091918;28;20455;-54
2022/12/01 00:21:42;;;;;;;0.30;0.20;;;;;;;8.52;100.00;95313.53;5091811;28;21009;-54
2022/12/01 00:24:11;;;;;;;0.30;0.20;;;;;;;8.49;100.00;95312.19;5091888;28;20456;-54
2022/12/01 00:26:39;;;;;;;0.40;0.30;;;;;;;8.33;100.00;95302.59;5092128;28;20948;-54
2022/12/01 00:29:09;;;;;;;0.30;0.27;;;;;;;8.73;100.00;95307.28;5091653;28;20539;-54
2022/12/01 00:31:38;;;;;;;0.30;0.20;;;;;;;8.84;100.00;95309.72;5091612;28;20435;-54
2022/12/01 00:34:06;;;;;;;0.30;0.20;;;;;;;9.05;100.00;95310.59;5092116;28;20421;-54
2022/12/01 00:36:39;;;;;;;0.40;0.30;;;;;;;8.68;100.00;95305.41;5091978;28;20797;-54
2022/12/01 00:39:08;;;;;;;0.30;0.30;;;;;;;8.89;100.00;95301.81;5091400;28;20453;-54
2022/12/01 00:41:36;;;;;;;0.30;0.20;;;;;;;8.68;100.00;95289.56;5092031;28;20436;-54
2022/12/01 00:44:05;;;;;;;0.40;0.20;;;;;;;8.66;100.00;95306.72;5091666;28;20441;-54
2022/12/01 00:46:35;;;;;;;0.30;0.20;;;;;;;8.78;100.00;95299.38;5091904;28;20518;-54
2022/12/01 00:49:04;;;;;;;0.30;0.20;;;;;;;9.00;100.00;95301.84;5091663;28;20463;-54
2022/12/01 00:51:33;;;;;;;0.30;0.20;;;;;;;8.90;100.00;95298.09;5091609;28;20427;-54
2022/12/01 00:54:01;;;;;;;0.40;0.30;;;;;;;8.80;100.00;95292.00;5091794;28;20625;-54
2022/12/01 00:56:29;;;;;;;0.33;0.30;;;;;;;8.42;100.00;95284.41;5091911;28;20424;-54
2022/12/01 00:58:58;;;;;;;0.30;0.20;;;;;;;8.61;100.00;95289.00;5091197;28;20434;-54
2022/12/01 01:01:26;;;;;;;0.30;0.20;;;;;;;8.12;100.00;95279.72;5091852;28;20431;-54
2022/12/01 01:03:57;;;;;;;0.40;0.30;;;;;;;8.40;100.00;95286.53;5091388;28;20443;-53
2022/12/01 01:06:25;;;;;;;0.40;0.37;;;;;;;8.41;100.00;95280.97;5091400;28;20417;-54
2022/12/01 01:08:54;;;;;;;0.30;0.20;;;;;;;8.18;100.00;95276.06;5091321;28;20429;-54
2022/12/01 01:11:22;;;;;;;0.40;0.20;;;;;;;7.93;100.00;95223.91;5091196;28;21022;-54
2022/12/01 01:13:50;;;;;;;0.30;0.30;;;;;;;7.94;100.00;95262.47;5091374;28;20429;-54
2022/12/01 01:16:21;;;;;;;0.30;0.23;;;;;;;8.22;100.00;95279.78;5095229;28;20515;-54
2022/12/01 01:18:49;;;;;;;0.40;0.40;;;;;;;8.46;100.00;95278.38;5095103;28;20500;-53
2022/12/01 01:21:21;;;;;;;0.30;0.20;;;;;;;8.67;100.00;95293.28;5094854;28;20429;-54
2022/12/01 01:23:50;;;;;;;0.30;0.20;;;;;;;8.38;100.00;95272.75;5094848;28;20425;-54
2022/12/01 01:26:20;;;;;;;0.30;0.20;;;;;;;8.47;100.00;95265.97;5095017;28;20748;-54
2022/12/01 01:28:49;;;;;;;0.40;0.30;;;;;;;7.93;100.00;95260.06;5094303;28;20468;-54
2022/12/01 01:31:20;;;;;;;0.47;0.43;;;;;;;7.96;100.00;95256.91;5094114;28;20917;-55
2022/12/01 01:33:49;;;;;;;0.30;0.20;;;;;;;8.01;100.00;95257.75;5094844;28;20417;-54
2022/12/01 01:36:19;;;;;;;0.30;0.20;;;;;;;8.04;100.00;95256.44;5095068;28;20425;-54
2022/12/01 01:38:50;;;;;;;0.30;0.20;;;;;;;8.21;100.00;95257.06;5094624;28;20457;-54
2022/12/01 01:41:19;;;;;;;0.30;0.20;;;;;;;8.11;100.00;95244.63;5094522;28;20557;-54
2022/12/01 01:43:52;;;;;;;0.30;0.20;;;;;;;8.25;100.00;95242.28;5094575;28;20417;-55
2022/12/01 01:46:22;;;;;;;0.30;0.20;;;;;;;8.32;100.00;95242.13;5094533;28;20504;-54
2022/12/01 01:48:54;;;;;;;0.40;0.30;;;;;;;8.61;100.00;95241.44;5094244;28;20489;-54
2022/12/01 01:51:29;;;;;;;0.30;0.20;;;;;;;8.71;100.00;95252.06;5093834;28;20480;-55
2022/12/01 01:54:03;;;;;;;0.30;0.20;;;;;;;8.54;100.00;95251.47;5094182;28;20623;-55
2022/12/01 01:56:33;;;;;;;0.30;0.20;;;;;;;8.97;100.00;95249.50;5094633;28;20424;-54
2022/12/01 01:59:01;;;;;;;0.30;0.20;;;;;;;9.08;100.00;95251.91;5094613;28;20432;-54
2022/12/01 02:01:31;;;;;;;0.47;0.47;;;;;;;9.18;100.00;95244.00;5094202;28;20429;-55
2022/12/01 02:03:59;;;;;;;0.30;0.20;;;;;;;9.31;100.00;95240.06;5093824;28;20430;-54
2022/12/01 02:06:29;;;;;;;0.30;0.20;;;;;;;9.01;100.00;95235.50;5093831;28;20432;-54
2022/12/01 02:08:57;;;;;;;0.30;0.20;;;;;;;9.32;100.00;95239.00;5094010;28;20515;-54
2022/12/01 02:11:59;;;;;;;0.30;0.20;;;;;;;9.47;100.00;95233.72;5094031;28;20491;-55
2022/12/01 02:14:49;;;;;;;0.30;0.20;;;;;;;9.28;100.00;95241.38;5061189;28;20468;-54
2022/12/01 02:17:28;;;;;;;0.40;0.30;;;;;;;9.33;100.00;95240.59;5093892;28;20451;-55
2022/12/01 02:20:41;;;;;;;0.40;0.30;;;;;;;8.27;100.00;95179.53;5093940;28;20417;-54
2022/12/01 02:23:50;;;;;;;0.40;0.30;;;;;;;8.54;100.00;95209.19;5065678;28;20447;-54
2022/12/01 02:26:33;;;;;;;0.37;0.20;;;;;;;8.58;100.00;95220.81;5093933;28;20445;-54
2022/12/01 02:29:21;;;;;;;0.30;0.20;;;;;;;8.28;100.00;95220.69;5093549;28;20498;-54
2022/12/01 02:31:59;;;;;;;0.40;0.30;;;;;;;8.72;100.00;95227.25;5093452;28;20864;-54
2022/12/01 02:34:35;;;;;;;0.30;0.20;;;;;;;8.41;100.00;95211.50;5093882;28;20413;-54
2022/12/01 02:37:11;;;;;;;0.30;0.20;;;;;;;8.19;100.00;95206.38;5093669;28;21145;-54
2022/12/01 02:39:52;;;;;;;0.30;0.20;;;;;;;8.05;100.00;95194.66;5093813;28;20472;-54
2022/12/01 02:45:14;;;;;;;0.30;0.20;;;;;;;8.11;100.00;95193.66;5093155;28;20527;-54
2022/12/01 02:47:45;;;;;;;0.40;0.30;;;;;;;8.34;100.00;95198.56;5093329;28;20527;-54
2022/12/01 02:50:14;;;;;;;0.60;0.60;;;;;;;7.66;100.00;95081.53;5093636;28;20431;-54
2022/12/01 02:52:45;;;;;;;0.30;0.20;;;;;;;8.43;100.00;95185.63;5093600;28;20519;-54
2022/12/01 02:55:13;;;;;;;0.30;0.20;;;;;;;8.24;100.00;95175.53;5093267;28;20435;-55
2022/12/01 02:57:41;;;;;;;0.30;0.20;;;;;;;8.42;100.00;95195.44;5093239;28;20448;-55
2022/12/01 03:00:12;;;;;;;0.30;0.20;;;;;;;8.50;100.00;95200.19;5093397;28;20431;-55
2022/12/01 03:02:52;;;;;;;0.30;0.27;;;;;;;8.58;100.00;95204.97;5092419;28;20429;-55
2022/12/01 03:05:26;;;;;;;0.30;0.20;;;;;;;8.40;100.00;95200.16;5093003;28;20428;-55
2022/12/01 03:08:02;;;;;;;0.30;0.20;;;;;;;7.52;100.00;95035.59;5093050;28;20428;-55
2022/12/01 03:10:41;;;;;;;0.30;0.20;;;;;;;8.63;100.00;95210.28;5092855;28;20421;-55
2022/12/01 03:13:19;;;;;;;0.30;0.20;;;;;;;8.82;100.00;95216.69;5092742;28;20443;-55
2022/12/01 03:15:58;;;;;;;0.30;0.20;;;;;;;8.89;100.00;95213.78;5092806;28;20420;-54
2022/12/01 03:18:35;;;;;;;0.30;0.30;;;;;;;8.57;100.00;95190.19;5092922;28;20565;-54
2022/12/01 03:21:10;;;;;;;0.30;0.30;;;;;;;8.84;100.00;95216.44;5092682;28;20858;-54
2022/12/01 03:23:55;;;;;;;0.30;0.20;;;;;;;8.84;100.00;95214.59;5092984;28;20429;-55
2022/12/01 03:26:25;;;;;;;0.30;0.20;;;;;;;8.21;100.00;95125.06;5092573;28;20429;-54
2022/12/01 03:28:57;;;;;;;0.40;0.30;;;;;;;9.10;100.00;95223.38;5092461;28;20821;-55
2022/12/01 03:31:31;;;;;;;0.30;0.20;;;;;;;8.72;100.00;95216.66;5092482;28;20903;-55
2022/12/01 03:34:06;;;;;;;0.30;0.20;;;;;;;8.92;100.00;95215.94;5092503;28;20421;-55
2022/12/01 03:36:38;;;;;;;0.30;0.20;;;;;;;8.74;100.00;95227.75;5092199;28;20506;-55
2022/12/01 03:39:13;;;;;;;0.30;0.20;;;;;;;8.66;100.00;95222.97;5092293;28;20439;-53
2022/12/01 03:41:48;;;;;;;0.30;0.20;;;;;;;8.06;100.00;95148.75;5092326;28;20997;-53
2022/12/01 03:44:22;;;;;;;0.60;0.50;;;;;;;8.73;100.00;95220.09;5092113;28;20515;-53
2022/12/01 03:46:54;;;;;;;0.30;0.20;;;;;;;8.24;100.00;95224.88;5092497;28;20813;-54
2022/12/01 03:49:25;;;;;;;0.30;0.20;;;;;;;8.27;100.00;95224.41;5092227;28;20432;-53
2022/12/01 03:52:04;;;;;;;0.50;0.50;;;;;;;8.26;100.00;95222.78;5092367;28;20487;-53
2022/12/01 03:54:44;;;;;;;0.30;0.20;;;;;;;8.16;100.00;95220.88;5092079;28;20524;-53
2022/12/01 03:57:18;;;;;;;0.40;0.30;;;;;;;7.96;100.00;95202.28;5091883;28;20432;-53
2022/12/01 03:59:48;;;;;;;0.30;0.20;;;;;;;8.11;100.00;95222.69;5092040;28;20436;-53
2022/12/01 04:02:17;;;;;;;0.30;0.20;;;;;;;8.39;100.00;95227.63;5091844;28;20433;-53
2022/12/01 04:04:47;;;;;;;0.30;0.20;;;;;;;7.83;100.00;95225.69;5091983;28;20475;-54
2022/12/01 04:07:15;;;;;;;0.30;0.30;;;;;;;8.04;100.00;95208.94;5091806;28;20441;-54
2022/12/01 04:09:44;;;;;;;0.60;0.33;;;;;;;8.17;100.00;95224.31;5091389;28;20921;-55
2022/12/01 04:12:28;;;;;;;0.30;0.20;;;;;;;8.38;100.00;95214.66;5091736;28;20563;-54
2022/12/01 04:14:57;;;;;;;0.50;0.33;;;;;;;7.86;100.00;95212.00;5091854;28;20437;-54
2022/12/01 04:17:26;;;;;;;0.40;0.30;;;;;;;7.96;100.00;95220.75;5091859;28;20443;-54
2022/12/01 04:19:55;;;;;;;0.30;0.20;;;;;;;7.76;100.00;95206.66;5091675;28;20464;-54
2022/12/01 04:22:24;;;;;;;0.30;0.20;;;;;;;7.89;100.00;95222.03;5091925;28;20455;-52
2022/12/01 04:24:53;;;;;;;0.30;0.20;;;;;;;7.93;100.00;95205.44;5091536;28;20431;-55
2022/12/01 04:27:22;;;;;;;0.50;0.50;;;;;;;8.03;100.00;95212.63;5091437;28;20487;-53
2022/12/01 04:29:50;;;;;;;0.30;0.30;;;;;;;8.13;100.00;95212.66;5091578;28;20437;-53
2022/12/01 04:32:19;;;;;;;0.40;0.30;;;;;;;7.80;100.00;95191.88;5091364;28;20498;-53
2022/12/01 04:34:47;;;;;;;0.47;0.40;;;;;;;7.98;100.00;95217.88;5091539;28;20507;-53
2022/12/01 04:37:17;;;;;;;0.40;0.40;;;;;;;7.89;100.00;95209.66;5091409;28;20432;-53
2022/12/01 04:39:45;;;;;;;0.60;0.60;;;;;;;8.02;100.00;95219.72;5091435;28;20474;-54
2022/12/01 04:42:14;;;;;;;0.40;0.30;;;;;;;7.96;100.00;95212.84;5091549;28;20834;-52
2022/12/01 04:44:43;;;;;;;0.50;0.30;;;;;;;8.00;100.00;95213.13;5091542;28;20425;-53
2022/12/01 04:47:11;;;;;;;0.30;0.20;;;;;;;7.97;100.00;95209.16;5091736;28;20796;-53
2022/12/01 04:49:39;;;;;;;0.40;0.20;;;;;;;8.30;100.00;95202.75;5092893;28;20525;-53
2022/12/01 04:52:07;;;;;;;0.70;0.40;;;;;;;8.09;100.00;95211.59;5095436;28;20500;-54
2022/12/01 04:54:37;;;;;;;0.30;0.20;;;;;;;8.18;100.00;95218.78;5095764;28;20440;-54
2022/12/01 04:57:05;;;;;;;0.30;0.20;;;;;;;8.27;100.00;95211.22;5095567;28;20520;-54
2022/12/01 04:59:34;;;;;;;0.40;0.30;;;;;;;8.16;100.00;95217.44;5095218;28;20432;-54
2022/12/01 05:02:02;;;;;;;0.30;0.20;;;;;;;8.49;100.00;95205.75;5095270;28;20441;-54
2022/12/01 05:04:32;;;;;;;0.30;0.20;;;;;;;8.17;100.00;95208.50;5095122;28;20472;-54
2022/12/01 05:07:01;;;;;;;0.40;0.33;;;;;;;7.75;100.00;95142.53;5095232;28;20432;-54
2022/12/01 05:09:29;;;;;;;0.40;0.30;;;;;;;8.10;100.00;95198.13;5095371;28;20424;-54
2022/12/01 05:11:59;;;;;;;2.47;0.30;;;;;;;7.93;100.00;95212.56;5095442;28;20479;-54
2022/12/01 05:14:27;;;;;;;0.60;0.30;;;;;;;8.10;100.00;95213.97;5094734;28;20436;-54
2022/12/01 05:16:57;;;;;;;0.93;0.93;;;;;;;7.89;100.00;95220.19;5095233;28;20426;-54
2022/12/01 05:22:11;;;;;;;0.40;0.30;;;;;;;7.95;100.00;95199.91;5095135;28;20856;-54
2022/12/01 05:24:39;;;;;;;0.37;0.37;;;;;;;7.64;100.00;95212.09;5094323;28;20512;-54
2022/12/01 05:27:09;;;;;;;0.40;0.30;;;;;;;7.60;100.00;95226.84;5094708;28;20576;-54
2022/12/01 05:29:37;;;;;;;0.40;0.33;;;;;;;7.67;100.00;95225.56;5094790;28;20468;-54
2022/12/01 05:32:06;;;;;;;0.40;0.30;;;;;;;7.69;100.00;95212.94;5094478;28;20464;-54
2022/12/01 05:34:34;;;;;;;0.30;0.30;;;;;;;7.70;100.00;95203.16;5094864;28;20824;-54
2022/12/01 05:37:03;;;;;;;0.30;0.30;;;;;;;7.98;100.00;95207.31;5094666;28;20429;-54
2022/12/01 05:39:31;;;;;;;0.60;0.60;;;;;;;8.02;100.00;95193.34;5094819;28;20435;-54
2022/12/01 05:42:00;;;;;;;0.30;0.20;;;;;;;8.21;100.00;95207.72;5094404;28;20527;-54
2022/12/01 05:44:48;;;;;;;0.50;0.50;;;;;;;8.11;100.00;95212.13;5094533;28;20428;-54
2022/12/01 05:47:17;;;;;;;0.30;0.27;;;;;;;8.50;100.00;95213.41;5094470;28;20928;-54
2022/12/01 05:49:45;;;;;;;0.40;0.40;;;;;;;8.55;100.00;95212.66;5094723;28;20430;-54
2022/12/01 05:52:14;;;;;;;0.30;0.30;;;;;;;8.37;100.00;95213.91;5094232;28;20529;-54
2022/12/01 05:54:42;;;;;;;2.67;0.60;;;;;;;8.15;100.00;95215.84;5094787;28;20833;-54
2022/12/01 05:57:11;;;;;;;0.30;0.20;;;;;;;8.19;100.00;95211.66;5094375;28;20434;-55
2022/12/01 05:59:39;;;;;;;0.30;0.20;;;;;;;8.36;100.00;95222.84;5093671;28;20435;-54
2022/12/01 06:02:09;;;;;;;0.30;0.20;;;;;;;8.44;100.00;95203.88;5094138;28;20940;-54
2022/12/01 06:04:37;;;;;;;0.40;0.27;;;;;;;8.43;100.00;95206.75;5094261;28;21108;-55
2022/12/01 06:07:05;;;;;;;0.40;0.27;;;;;;;8.50;100.00;95223.19;5094263;28;20433;-54
2022/12/01 06:09:34;;;;;;;0.30;0.30;;;;;;;8.41;100.00;95224.72;5094036;28;20757;-55
2022/12/01 06:12:03;;;;;;;0.40;0.30;;;;;;;8.37;100.00;95221.81;5094025;28;20507;-54
2022/12/01 06:14:31;;;;;;;0.40;0.30;;;;;;;7.82;100.00;95205.66;5094330;28;20495;-55
2022/12/01 06:16:59;;;;;;;0.40;0.30;;;;;;;7.94;100.00;95219.44;5094449;28;20425;-55
2022/12/01 06:19:30;;;;;;;0.90;0.90;;;;;;;8.29;100.00;95222.31;5093802;28;20437;-55
2022/12/01 06:21:58;;;;;;;0.60;0.50;;;;;;;8.09;100.00;95215.03;5093835;28;20527;-55
2022/12/01 06:24:26;;;;;;;0.30;0.30;;;;;;;8.11;100.00;95225.34;5094174;28;20530;-55
2022/12/01 06:26:55;;;;;;;0.67;0.67;;;;;;;8.31;100.00;95230.75;5093983;28;20422;-55
2022/12/01 06:29:23;;;;;;;0.40;0.40;;;;;;;7.89;100.00;95236.03;5093754;28;20435;-55
2022/12/01 06:31:51;;;;;;;0.40;0.30;;;;;;;8.00;100.00;95229.75;5094004;28;20425;-55
2022/12/01 06:34:20;;;;;;;0.30;0.20;;;;;;;8.14;100.00;95232.75;5093532;28;20842;-55
2022/12/01 06:36:50;;;;;;;0.40;0.20;;;;;;;8.18;100.00;95234.63;5093624;28;20504;-55
2022/12/01 06:39:18;;;;;;;0.30;0.27;;;;;;;7.95;100.00;95221.00;5093691;28;20550;-54
2022/12/01 06:41:47;;;;;;;0.40;0.30;;;;;;;8.07;100.00;95234.81;5093418;28;20512;-54
2022/12/01 06:44:15;;;;;;;0.30;0.20;;;;;;;8.25;100.00;95234.38;5093103;28;20520;-53
2022/12/01 06:46:43;;;;;;;0.40;0.30;;;;;;;8.01;100.00;95207.59;5093614;28;20455;-53
2022/12/01 06:49:13;;;;;;;0.43;0.43;;;;;;;8.04;100.00;95222.94;5093197;28;20764;-55
2022/12/01 06:51:41;;;;;;;0.30;0.20;;;;;;;7.95;100.00;95231.56;5092955;28;20440;-54
2022/12/01 06:54:13;;;;;;;0.60;0.60;;;;;;;7.58;100.00;95228.94;5092969;28;20535;-54
2022/12/01 06:56:42;;;;;;;0.40;0.30;;;;;;;7.92;100.00;95221.53;5093171;28;20435;-53
2022/12/01 06:59:10;;;;;;;0.40;0.40;;;;;;;7.04;100.00;95117.53;5092201;28;20778;-53
2022/12/01 07:01:39;;;;;;;0.40;0.40;;;;;;;7.79;100.00;95245.72;5092906;28;20429;-54
2022/12/01 07:04:07;;;;;;;0.30;0.20;;;;;;;8.12;100.00;95234.84;5091880;28;20432;-54
2022/12/01 07:06:36;;;;;;;0.30;0.23;;;;;;;8.05;100.00;95231.63;5092907;28;20433;-54
2022/12/01 07:09:05;;;;;;;0.30;0.20;;;;;;;7.77;100.00;95219.56;5091994;28;20429;-54
2022/12/01 07:11:35;;;;;;;1.87;0.27;;;;;;;8.23;100.00;95236.47;5092123;28;20438;-54
2022/12/01 07:14:04;;;;;;;0.30;0.20;;;;;;;8.13;100.00;95241.72;5092862;28;20917;-54
2022/12/01 07:16:32;;;;;;;0.40;0.27;;;;;;;7.87;100.00;95242.63;5092452;28;20432;-54
2022/12/01 07:19:00;;;;;;;0.30;0.20;;;;;;;7.81;100.00;95235.69;5091124;28;20428;-54
2022/12/01 07:21:29;;;;;;;0.30;0.30;;;;;;;7.37;100.00;95198.97;5091755;28;20514;-54
2022/12/01 07:23:57;;;;;;;0.70;0.43;;;;;;;7.79;100.00;95243.88;5092494;28;20422;-54
2022/12/01 07:26:25;;;;;;;0.60;0.60;;;;;;;7.86;100.00;95217.25;5091675;28;21019;-54
2022/12/01 07:28:55;;;;;;;1.47;1.07;;;;;;;8.09;100.00;95238.81;5092422;28;20507;-54
2022/12/01 07:31:27;;;;;;;0.30;0.30;;;;;;;7.91;100.00;95233.13;5091656;28;21034;-54
2022/12/01 07:33:55;;;;;;;0.60;0.60;;;;;;;8.38;100.00;95244.50;5090012;28;20560;-54
2022/12/01 07:36:26;;;;;;;0.43;0.43;;;;;;;7.91;100.00;95239.22;5090474;28;20439;-53
2022/12/01 07:38:55;;;;;;;0.40;0.30;;;;;;;7.61;100.00;95239.00;5091914;28;20436;-53
2022/12/01 07:41:23;;;;;;;0.40;0.40;;;;;;;8.08;100.00;95241.69;5091407;28;20449;-54
2022/12/01 07:43:51;;;;;;;0.87;0.87;;;;;;;7.65;100.00;95214.50;5091214;28;20470;-53
2022/12/01 07:46:24;;;;;;;0.60;0.40;;;;;;;7.80;100.00;95252.56;5089944;28;20432;-54
2022/12/01 07:48:53;;;;;;;0.50;0.50;;;;;;;7.66;100.00;95239.81;5091702;28;20433;-54
2022/12/01 07:51:23;;;;;;;0.40;0.40;;;;;;;7.65;100.00;95248.78;5092117;28;20433;-55
2022/12/01 07:53:53;;;;;;;0.40;0.30;;;;;;;7.81;100.00;95246.25;5092154;28;20542;-53
2022/12/01 07:56:22;;;;;;;3.93;0.70;;;;;;;7.87;100.00;95256.56;5092341;28;20512;-54
2022/12/01 07:58:51;;;;;;;0.40;0.40;;;;;;;7.82;100.00;95250.50;5091698;28;20523;-54
2022/12/01 08:01:22;;;;;;;0.40;0.30;;;;;;;7.93;100.00;95252.94;5091514;28;20443;-54
2022/12/01 08:03:52;;;;;;;0.90;0.90;;;;;;;7.61;100.00;95194.94;5092078;28;20960;-54
2022/12/01 08:06:21;;;;;;;1.40;0.70;;;;;;;7.91;100.00;95249.75;5091873;28;20519;-54
2022/12/01 08:08:50;;;;;;;0.80;0.80;;;;;;;7.96;100.00;95256.91;5092148;28;20554;-54
2022/12/01 08:11:20;;;;;;;0.30;0.30;;;;;;;8.07;100.00;95263.84;5092353;28;20447;-54
2022/12/01 08:13:49;;;;;;;1.03;0.40;;;;;;;8.02;100.00;95259.31;5091777;28;20899;-54
2022/12/01 08:16:20;;;;;;;0.40;0.30;;;;;;;8.19;100.00;95256.53;5091688;28;20512;-55
2022/12/01 08:18:50;;;;;;;0.30;0.30;;;;;;;8.07;100.00;95269.13;5092097;28;20815;-55
2022/12/01 08:21:20;;;;;;;0.30;0.20;;;;;;;8.06;100.00;95249.88;5091843;28;20551;-55
2022/12/01 08:23:52;;;;;;;0.30;0.20;;;;;;;7.76;100.00;95254.94;5091603;28;20849;-54
2022/12/01 08:26:22;;;;;;;0.37;0.30;;;;;;;6.91;100.00;95117.94;5091354;28;20508;-55
2022/12/01 08:28:50;;;;;;;0.40;0.30;;;;;;;7.92;100.00;95256.63;5091172;28;20546;-55
2022/12/01 08:31:21;;;;;;;0.50;0.40;;;;;;;7.78;100.00;95242.28;5091455;28;20417;-54
2022/12/01 08:33:51;;;;;;;4.33;0.90;;;;;;;8.00;100.00;95250.06;5091281;28;20507;-54
2022/12/01 08:36:22;;;;;;;0.40;0.37;;;;;;;8.03;100.00;95260.13;5091582;28;20511;-55
2022/12/01 08:38:56;;;;;;;2.43;0.63;;;;;;;7.81;100.00;95244.41;5091806;28;20433;-54
2022/12/01 08:41:25;;;;;;;1.17;0.30;;;;;;;7.86;100.00;95247.09;5091725;28;20433;-54
2022/12/01 08:43:55;;;;;;;6.17;0.60;;;;;;;7.61;100.00;95239.75;5090912;28;20437;-54
2022/12/01 08:46:26;;;;;;;0.30;0.30;;;;;;;7.82;100.00;95256.53;5091149;28;20432;-51
2022/12/01 08:48:56;;;;;;;0.40;0.33;;;;;;;7.94;100.00;95248.47;5090978;28;20500;-54
2022/12/01 08:51:25;;;;;;;0.60;0.60;;;;;;;7.88;100.00;95260.81;5091288;28;20425;-54
2022/12/01 08:53:55;;;;;;;0.30;0.20;;;;;;;8.06;100.00;95259.63;5091083;28;20508;-54
2022/12/01 08:56:26;;;;;;;0.70;0.70;;;;;;;7.86;100.00;95243.66;5091354;28;20528;-53
2022/12/01 08:58:55;;;;;;;0.40;0.40;;;;;;;7.45;100.00;95200.34;5091486;28;20429;-53
2022/12/01 09:01:25;;;;;;;0.40;0.40;;;;;;;7.62;100.00;95225.53;5091227;28;20433;-54
2022/12/01 09:04:04;;;;;;;0.30;0.20;;;;;;;6.47;100.00;95059.38;5091278;28;20436;-54
2022/12/01 09:06:39;;;;;;;0.43;0.30;;;;;;;7.81;100.00;95257.59;5091213;28;20440;-54
2022/12/01 09:09:08;;;;;;;0.30;0.30;;;;;;;7.64;100.00;95246.38;5091499;28;20439;-53
2022/12/01 09:11:37;;;;;;;0.40;0.30;;;;;;;7.22;100.00;95172.50;5091234;28;20519;-54
2022/12/01 09:14:05;;;;;;;1.23;1.13;;;;;;;7.89;100.00;95243.16;5091226;28;20547;-54
2022/12/01 09:16:33;;;;;;;0.90;0.50;;;;;;;7.76;100.00;95238.31;5091225;28;20425;-54
2022/12/01 09:19:02;;;;;;;0.50;0.40;;;;;;;7.68;100.00;95236.94;5091367;28;20421;-54
2022/12/01 09:21:33;;;;;;;0.70;0.47;;;;;;;7.88;100.00;95246.81;5091516;28;20435;-54
2022/12/01 09:24:04;;;;;;;0.30;0.20;;;;;;;7.26;100.00;95144.56;5091218;28;20467;-55
2022/12/01 09:26:33;;;;;;;0.30;0.20;;;;;;;7.96;100.00;95230.53;5091289;28;20428;-55
2022/12/01 09:29:05;;;;;;;0.40;0.30;;;;;;;7.59;100.00;95228.69;5090605;28;20463;-54
2022/12/01 09:31:33;;;;;;;0.40;0.20;;;;;;;7.90;100.00;95245.53;5091620;28;20431;-54
2022/12/01 09:34:03;;;;;;;0.40;0.30;;;;;;;7.69;100.00;95191.81;5091435;28;20464;-54
2022/12/01 09:36:33;;;;;;;0.30;0.20;;;;;;;8.28;100.00;95233.91;5094416;28;20425;-54
2022/12/01 09:39:04;;;;;;;0.40;0.30;;;;;;;7.26;100.00;95102.41;5094571;28;20432;-54
2022/12/01 09:41:36;;;;;;;0.30;0.30;;;;;;;8.16;100.00;95242.00;5095025;28;20432;-54
2022/12/01 09:44:13;;;;;;;0.30;0.20;;;;;;;7.58;100.00;95173.56;5094659;28;20425;-54
2022/12/01 09:46:46;;;;;;;0.40;0.30;;;;;;;8.03;100.00;95197.59;5094398;28;20432;-54
2022/12/01 09:49:19;;;;;;;0.40;0.30;;;;;;;8.12;100.00;95240.13;5094679;28;20917;-54
2022/12/01 09:51:47;;;;;;;0.43;0.37;;;;;;;8.00;100.00;95234.22;5094526;28;20913;-54
2022/12/01 09:54:17;;;;;;;0.63;0.63;;;;;;;8.02;100.00;95226.88;5094421;28;20472;-54
2022/12/01 09:56:48;;;;;;;0.30;0.23;;;;;;;7.90;100.00;95219.13;5094683;28;20879;-54
2022/12/01 09:59:22;;;;;;;1.10;1.10;;;;;;;7.29;100.00;95127.44;5094128;28;20421;-54
2022/12/01 10:01:54;;;;;;;0.40;0.40;;;;;;;7.58;100.00;95236.84;5094292;28;20803;-55
2022/12/01 10:04:28;;;;;;;0.30;0.20;;;;;;;7.57;100.00;95225.50;5094463;28;20440;-55
2022/12/01 10:07:01;;;;;;;1.90;0.70;;;;;;;7.32;100.00;95182.31;5094575;28;20429;-55
2022/12/01 10:09:39;;;;;;;0.60;0.60;;;;;;;6.72;100.00;95069.31;5094339;28;20833;-54
2022/12/01 10:12:14;;;;;;;0.43;0.43;;;;;;;7.78;100.00;95239.63;5094160;28;20802;-55
2022/12/01 10:14:45;;;;;;;2.10;0.80;;;;;;;7.79;100.00;95224.63;5094361;28;20464;-54
2022/12/01 10:17:26;;;;;;;1.40;1.30;;;;;;;7.72;100.00;95192.34;5093933;28;20524;-55
2022/12/01 10:20:03;;;;;;;2.20;2.00;;;;;;;7.90;100.00;95228.88;5094029;28;20495;-55
2022/12/01 10:23:01;;;;;;;0.30;0.20;;;;;;;8.00;100.00;95231.59;5093930;28;20559;-55
2022/12/01 10:25:37;;;;;;;0.50;0.50;;;;;;;7.81;100.00;95201.41;5093832;28;20421;-56
2022/12/01 10:28:21;;;;;;;0.40;0.30;;;;;;;7.96;100.00;95223.41;5093657;28;20476;-54
2022/12/01 10:30:51;;;;;;;0.40;0.40;;;;;;;8.24;100.00;95219.59;5093977;28;20781;-55
2022/12/01 10:33:24;;;;;;;0.50;0.40;;;;;;;7.76;100.00;95175.00;5093572;28;20435;-54
2022/12/01 10:35:53;;;;;;;0.60;0.60;;;;;;;7.77;100.00;95224.06;5093676;28;20483;-54
2022/12/01 10:38:26;;;;;;;0.40;0.30;;;;;;;8.02;100.00;95229.53;5093498;28;20429;-54
2022/12/01 10:40:59;;;;;;;0.70;0.30;;;;;;;8.16;100.00;95225.38;5093777;28;20451;-54
2022/12/01 10:43:34;;;;;;;0.80;0.40;;;;;;;8.00;100.00;95218.41;5093767;28;20551;-56
2022/12/01 10:46:10;;;;;;;1.37;0.47;;;;;;;7.74;100.00;95214.03;5093732;28;20428;-55
2022/12/01 10:48:53;;;;;;;0.40;0.30;;;;;;;8.14;100.00;95224.84;5093382;28;20425;-56
2022/12/01 10:51:22;;;;;;;0.50;0.50;;;;;;;8.07;100.00;95224.28;5093224;28;20429;-56
2022/12/01 10:53:58;;;;;;;0.93;0.63;;;;;;;8.40;100.00;95221.28;5093241;28;20515;-55
2022/12/01 10:56:31;;;;;;;0.40;0.40;;;;;;;8.27;100.00;95219.91;5093616;28;20496;-56
2022/12/01 10:59:05;;;;;;;2.63;0.80;;;;;;;8.18;100.00;95221.41;5093501;28;20437;-55
2022/12/01 11:01:35;;;;;;;0.80;0.40;;;;;;;8.11;100.00;95226.13;5093753;28;20920;-55
2022/12/01 11:04:07;;;;;;;0.30;0.20;;;;;;;8.14;100.00;95223.00;5093427;28;20509;-56
2022/12/01 11:06:37;;;;;;;0.37;0.30;;;;;;;8.10;100.00;95221.91;5093072;28;20422;-56
2022/12/01 11:09:18;;;;;;;0.40;0.30;;;;;;;8.30;100.00;95221.22;5092973;28;20453;-56
2022/12/01 11:11:57;;;;;;;0.30;0.30;;;;;;;8.21;100.00;95228.03;5093265;28;20466;-56
2022/12/01 11:14:37;;;;;;;0.93;0.93;;;;;;;8.25;100.00;95218.53;5092967;28;20456;-56
2022/12/01 11:17:16;;;;;;;0.30;0.20;;;;;;;8.20;100.00;95221.94;5092833;28;20515;-56
2022/12/01 11:19:45;;;;;;;1.90;0.33;;;;;;;7.72;100.00;95216.91;5092873;28;20447;-55
2022/12/01 11:22:21;;;;;;;0.30;0.20;;;;;;;7.87;100.00;95152.91;5092457;28;20468;-55
2022/12/01 11:25:01;;;;;;;0.30;0.30;;;;;;;8.09;100.00;95156.19;5092804;28;20425;-55
2022/12/01 11:27:35;;;;;;;0.40;0.30;;;;;;;8.19;100.00;95240.69;5092725;28;20491;-55
2022/12/01 11:30:06;;;;;;;0.30;0.23;;;;;;;7.87;100.00;95172.16;5092721;28;20469;-55
2022/12/01 11:32:39;;;;;;;0.30;0.20;;;;;;;8.28;100.00;95225.97;5093044;28;20476;-55
2022/12/01 11:35:18;;;;;;;0.40;0.30;;;;;;;7.87;100.00;95218.88;5092592;28;20826;-55
2022/12/01 11:37:49;;;;;;;0.47;0.47;;;;;;;7.61;100.00;95218.66;5092433;28;21006;-55
2022/12/01 11:40:47;;;;;;;1.43;0.40;;;;;;;7.63;100.00;95216.59;5092305;28;20443;-55
2022/12/01 11:43:25;;;;;;;1.20;1.20;;;;;;;7.75;100.00;95210.31;5092488;28;20435;-55
2022/12/01 11:45:56;;;;;;;0.50;0.43;;;;;;;8.05;100.00;95221.06;5092176;28;20433;-56
2022/12/01 11:48:26;;;;;;;0.53;0.30;;;;;;;7.69;100.00;95218.19;5092316;28;20421;-56
2022/12/01 11:51:04;;;;;;;1.07;1.07;;;;;;;7.77;100.00;95224.84;5092210;28;20512;-56
2022/12/01 11:53:35;;;;;;;0.70;0.70;;;;;;;7.60;100.00;95209.19;5092166;28;20790;-55
2022/12/01 11:56:22;;;;;;;0.40;0.37;;;;;;;7.41;100.00;95231.69;5091884;28;20522;-55
2022/12/01 11:58:59;;;;;;;0.53;0.53;;;;;;;6.82;100.00;95136.06;5091768;28;20432;-55
2022/12/01 12:01:39;;;;;;;0.40;0.30;;;;;;;7.44;100.00;95223.28;5091902;28;20436;-55
2022/12/01 12:04:33;;;;;;;1.10;1.03;;;;;;;7.46;100.00;95204.59;5091992;28;20425;-56